createdAt,value
2023-01-13T00:06:03.895Z,6.26
2023-01-13T00:17:08.721Z,6.28
2023-01-13T00:27:38.551Z,6.28
2023-01-13T00:38:02.926Z,6.18
2023-01-13T00:48:47.978Z,6.16
2023-01-13T00:59:30.538Z,6.25
2023-01-13T01:10:54.579Z,6.27
2023-01-13T01:21:53.040Z,6.23
2023-01-13T01:32:09.828Z,6.27
2023-01-13T01:42:52.863Z,6.29
2023-01-13T01:53:21.639Z,6.30
2023-01-13T02:03:36.627Z,6.34
2023-01-13T02:13:41.217Z,6.37
2023-01-13T02:24:30.019Z,6.36
2023-01-13T02:34:47.129Z,6.43
2023-01-13T02:45:40.157Z,6.45
2023-01-13T02:56:19.612Z,6.36
2023-01-13T03:07:16.515Z,6.38
2023-01-13T03:17:52.436Z,6.35
2023-01-13T03:28:11.534Z,6.27
2023-01-13T03:38:56.842Z,6.29
2023-01-13T03:49:34.204Z,6.34
2023-01-13T03:59:49.357Z,6.35
2023-01-13T04:10:02.109Z,6.38
2023-01-13T04:20:27.010Z,6.46
2023-01-13T04:30:51.808Z,6.55
2023-01-13T04:40:58.312Z,6.55
2023-01-13T04:51:02.429Z,6.62
2023-01-13T05:01:09.501Z,6.73
2023-01-13T05:11:35.093Z,6.74
2023-01-13T05:21:57.764Z,6.74
2023-01-13T05:32:03.013Z,6.72
2023-01-13T05:42:28.615Z,6.74
2023-01-13T05:52:42.050Z,6.73
2023-01-13T06:02:49.535Z,6.68
2023-01-13T06:13:27.653Z,6.53
2023-01-13T06:23:52.325Z,6.36
2023-01-13T06:34:12.065Z,6.31
2023-01-13T06:44:16.277Z,6.43
2023-01-13T06:54:30.465Z,6.55
2023-01-13T07:04:34.494Z,6.62
2023-01-13T07:14:57.257Z,6.75
2023-01-13T07:26:01.986Z,6.83
2023-01-13T07:36:28.916Z,6.86
2023-01-13T07:46:55.149Z,6.89
2023-01-13T07:57:09.356Z,7.04
2023-01-13T08:07:26.783Z,7.28
2023-01-13T08:17:40.517Z,7.46
2023-01-13T08:27:44.669Z,7.68
2023-01-13T08:38:26.369Z,7.87
2023-01-13T08:48:34.038Z,8.09
2023-01-13T08:58:59.901Z,8.32
2023-01-13T09:09:07.613Z,8.55
2023-01-13T09:19:22.156Z,8.73
2023-01-13T09:29:46.463Z,8.96
2023-01-13T09:40:03.076Z,9.12
2023-01-13T09:50:59.168Z,9.25
2023-01-13T10:01:29.112Z,9.45
2023-01-13T10:12:25.032Z,9.54
2023-01-13T10:23:53.450Z,9.75
2023-01-13T10:34:17.563Z,9.92
2023-01-13T10:44:47.831Z,9.93
2023-01-13T10:55:13.858Z,9.89
2023-01-13T11:06:35.109Z,9.89
2023-01-13T11:18:01.836Z,9.88
2023-01-13T11:29:13.796Z,9.95
2023-01-13T11:40:11.453Z,10.04
2023-01-13T11:51:16.860Z,10.09
2023-01-13T12:03:05.981Z,10.17
2023-01-13T12:14:08.910Z,10.21
2023-01-13T12:25:16.115Z,10.17
2023-01-13T12:36:36.648Z,10.09
2023-01-13T12:47:59.207Z,10.02
2023-01-13T12:59:19.846Z,9.97
2023-01-13T13:10:59.526Z,9.95
2023-01-13T13:21:45.603Z,9.98
2023-01-13T13:33:08.753Z,9.98
2023-01-13T13:44:05.173Z,9.81
2023-01-13T13:54:54.752Z,9.65
2023-01-13T14:05:55.659Z,9.49
2023-01-13T14:16:36.521Z,9.33
2023-01-13T14:26:53.577Z,9.19
2023-01-13T14:36:57.587Z,9.08
2023-01-13T14:47:28.318Z,8.97
2023-01-13T14:58:26.404Z,8.85
2023-01-13T15:09:01.495Z,8.58
2023-01-13T15:20:01.168Z,8.34
2023-01-13T15:30:44.881Z,8.20
2023-01-13T15:41:34.601Z,8.07
2023-01-13T15:51:41.333Z,7.91
2023-01-13T16:02:15.321Z,7.84
2023-01-13T16:12:40.089Z,7.80
2023-01-13T16:22:54.277Z,7.68
2023-01-13T16:33:07.651Z,7.62
2023-01-13T16:43:21.782Z,7.71
2023-01-13T16:53:46.476Z,7.70
2023-01-13T17:03:54.590Z,7.62
2023-01-13T17:14:00.077Z,7.65
2023-01-13T17:24:35.273Z,7.72
2023-01-13T17:34:54.662Z,7.72
2023-01-13T17:45:12.769Z,7.72
2023-01-13T17:55:32.990Z,7.62
2023-01-13T18:05:41.775Z,7.56
2023-01-13T18:16:12.081Z,7.46
2023-01-13T18:26:45.344Z,7.32
2023-01-13T18:36:55.661Z,7.25
2023-01-13T18:47:03.921Z,7.28
2023-01-13T18:57:12.093Z,7.25
2023-01-13T19:07:32.715Z,7.32
2023-01-13T19:17:41.959Z,7.43
2023-01-13T19:27:59.753Z,7.57
2023-01-13T19:38:08.564Z,7.67
2023-01-13T19:48:17.124Z,7.62
2023-01-13T19:58:36.542Z,7.59
2023-01-13T20:08:47.514Z,7.57
2023-01-13T20:18:59.611Z,7.54
2023-01-13T20:29:09.620Z,7.52
2023-01-13T20:39:24.970Z,7.41
2023-01-13T20:49:32.151Z,7.29
2023-01-13T20:59:38.206Z,7.26
2023-01-13T21:09:43.241Z,7.20
2023-01-13T21:19:47.396Z,7.04
2023-01-13T21:29:51.400Z,6.90
2023-01-13T21:39:55.912Z,6.86
2023-01-13T21:50:00.196Z,6.81
2023-01-13T22:00:05.780Z,6.77
2023-01-13T22:10:13.401Z,6.68
2023-01-13T22:20:28.632Z,6.62
2023-01-13T22:30:33.568Z,6.65
2023-01-13T22:40:37.592Z,6.51
2023-01-13T22:50:44.208Z,6.39
2023-01-13T23:01:33.309Z,6.13
2023-01-13T23:11:47.866Z,5.96
2023-01-13T23:22:03.920Z,5.79
2023-01-13T23:32:26.269Z,5.65
2023-01-13T23:42:51.945Z,5.50
2023-01-13T23:53:18.680Z,5.33
